createdAt,value
2018-07-02T00:00:09.002Z,3.43
2018-07-02T00:02:37.514Z,1.43
2018-07-02T00:05:06.320Z,4.80
2018-07-02T00:07:35.500Z,2.20
2018-07-02T00:10:04.247Z,3.13
2018-07-02T00:12:32.794Z,1.70
2018-07-02T00:15:01.270Z,2.17
2018-07-02T00:17:30.485Z,1.97
2018-07-02T00:19:59.533Z,2.20
2018-07-02T00:22:28.069Z,4.13
2018-07-02T00:24:56.633Z,2.37
2018-07-02T00:27:25.151Z,3.10
2018-07-02T00:29:53.556Z,1.70
2018-07-02T00:32:22.799Z,4.00
2018-07-02T00:34:51.561Z,1.60
2018-07-02T00:37:20.054Z,2.27
2018-07-02T00:39:48.788Z,1.80
2018-07-02T00:42:17.378Z,1.33
2018-07-02T00:44:45.806Z,1.60
2018-07-02T00:47:14.298Z,3.50
2018-07-02T00:49:42.821Z,2.60
2018-07-02T00:52:11.424Z,2.07
2018-07-02T00:54:39.956Z,1.57
2018-07-02T00:57:08.421Z,1.83
2018-07-02T00:59:37.068Z,1.30
2018-07-02T01:02:06.270Z,2.50
2018-07-02T01:04:34.749Z,2.30
2018-07-02T01:07:03.244Z,2.10
2018-07-02T01:09:32.143Z,1.93
2018-07-02T01:12:00.613Z,1.97
2018-07-02T01:14:29.113Z,4.73
2018-07-02T01:16:57.630Z,3.57
2018-07-02T01:19:26.144Z,2.00
2018-07-02T01:21:54.655Z,3.30
2018-07-02T01:24:23.639Z,1.87
2018-07-02T01:26:52.168Z,2.50
2018-07-02T01:29:21.344Z,3.73
2018-07-02T01:31:50.030Z,1.60
2018-07-02T01:34:18.633Z,3.53
2018-07-02T01:36:47.078Z,1.37
2018-07-02T01:39:15.653Z,3.13
2018-07-02T01:41:45.292Z,2.53
2018-07-02T01:44:13.785Z,1.50
2018-07-02T01:46:42.348Z,1.30
2018-07-02T01:49:10.856Z,1.33
2018-07-02T01:51:39.283Z,2.93
2018-07-02T01:54:07.819Z,1.23
2018-07-02T01:56:36.337Z,1.37
2018-07-02T01:59:04.919Z,1.97
2018-07-02T02:01:34.102Z,2.77
2018-07-02T02:04:02.576Z,2.23
2018-07-02T02:06:31.030Z,2.20
2018-07-02T02:08:59.518Z,2.20
2018-07-02T02:11:28.075Z,3.03
2018-07-02T02:13:56.566Z,1.77
2018-07-02T02:16:25.724Z,1.37
2018-07-02T02:18:55.009Z,2.63
2018-07-02T02:21:23.458Z,0.93
2018-07-02T02:23:51.978Z,2.00
2018-07-02T02:26:20.528Z,3.63
2018-07-02T02:28:48.985Z,3.03
2018-07-02T02:31:17.472Z,2.40
2018-07-02T02:33:45.900Z,3.13
2018-07-02T02:36:14.416Z,2.70
2018-07-02T02:38:42.844Z,1.57
2018-07-02T02:41:11.307Z,2.37
2018-07-02T02:43:39.808Z,3.13
2018-07-02T02:46:08.426Z,1.87
2018-07-02T02:48:36.854Z,1.97
2018-07-02T02:51:05.462Z,1.10
2018-07-02T02:53:34.091Z,2.80
2018-07-02T02:56:02.577Z,1.40
2018-07-02T02:58:31.127Z,1.50
2018-07-02T03:00:59.727Z,1.00
2018-07-02T03:03:28.200Z,1.50
2018-07-02T03:05:56.658Z,1.47
2018-07-02T03:08:25.142Z,2.80
2018-07-02T03:10:53.738Z,0.97
2018-07-02T03:13:22.199Z,1.80
2018-07-02T03:15:50.593Z,1.63
2018-07-02T03:18:19.020Z,1.67
2018-07-02T03:20:47.555Z,1.77
2018-07-02T03:23:16.018Z,1.70
2018-07-02T03:25:44.438Z,1.77
2018-07-02T03:28:12.879Z,3.67
2018-07-02T03:30:41.296Z,2.17
2018-07-02T03:33:09.853Z,1.27
2018-07-02T03:35:38.450Z,1.70
2018-07-02T03:38:07.145Z,0.90
2018-07-02T03:40:35.694Z,1.40
2018-07-02T03:43:04.124Z,2.80
2018-07-02T03:45:32.566Z,1.83
2018-07-02T03:48:01.149Z,3.00
2018-07-02T03:50:29.585Z,6.33
2018-07-02T03:52:58.844Z,2.23
2018-07-02T03:55:27.316Z,1.50
2018-07-02T03:57:55.814Z,1.10
2018-07-02T04:00:24.898Z,2.20
2018-07-02T04:02:53.339Z,3.30
2018-07-02T04:05:21.863Z,2.53
2018-07-02T04:07:50.335Z,2.47
2018-07-02T04:10:18.764Z,3.00
2018-07-02T04:12:47.770Z,1.30
2018-07-02T04:15:16.259Z,2.83
2018-07-02T04:17:44.698Z,1.30
2018-07-02T04:20:13.410Z,4.33
2018-07-02T04:22:41.828Z,2.53
2018-07-02T04:25:10.244Z,1.67
2018-07-02T04:27:38.789Z,1.30
2018-07-02T04:30:07.409Z,1.50
2018-07-02T04:32:35.943Z,1.60
2018-07-02T04:35:04.558Z,1.10
2018-07-02T04:37:33.651Z,2.07
2018-07-02T04:40:02.091Z,1.60
2018-07-02T04:42:30.636Z,2.57
2018-07-02T04:44:59.196Z,2.10
2018-07-02T04:47:27.679Z,2.47
2018-07-02T04:49:56.220Z,3.43
2018-07-02T04:52:24.820Z,1.23
2018-07-02T04:54:53.784Z,1.27
2018-07-02T04:57:22.241Z,2.13
2018-07-02T04:59:50.744Z,1.43
2018-07-02T05:02:19.401Z,3.67
2018-07-02T05:04:47.825Z,1.70
2018-07-02T05:07:16.239Z,2.90
2018-07-02T05:09:45.358Z,4.97
2018-07-02T05:12:13.954Z,1.80
2018-07-02T05:14:43.344Z,1.67
2018-07-02T05:17:11.761Z,4.13
2018-07-02T05:19:40.912Z,1.13
2018-07-02T05:22:09.353Z,2.80
2018-07-02T05:24:37.947Z,3.03
2018-07-02T05:27:06.514Z,3.70
2018-07-02T05:29:35.386Z,1.77
2018-07-02T05:32:03.850Z,1.07
2018-07-02T05:34:32.538Z,3.10
2018-07-02T05:37:01.130Z,2.20
2018-07-02T05:39:29.546Z,2.23
2018-07-02T05:41:58.011Z,5.43
2018-07-02T05:44:26.618Z,2.97
2018-07-02T05:46:55.052Z,1.90
2018-07-02T05:49:23.494Z,4.67
2018-07-02T05:51:52.014Z,5.17
2018-07-02T05:54:20.483Z,2.10
2018-07-02T05:56:49.047Z,4.83
2018-07-02T05:59:17.458Z,2.77
2018-07-02T06:01:45.924Z,2.50
2018-07-02T06:04:14.397Z,1.63
2018-07-02T06:06:42.902Z,1.77
2018-07-02T06:09:13.169Z,3.90
2018-07-02T06:14:40.512Z,2.53
2018-07-02T06:17:09.108Z,2.30
2018-07-02T06:19:38.174Z,2.83
2018-07-02T06:22:06.661Z,3.30
2018-07-02T06:24:35.162Z,2.00
2018-07-02T06:27:03.721Z,2.10
2018-07-02T06:29:32.908Z,2.30
2018-07-02T06:32:01.457Z,2.23
2018-07-02T06:34:29.937Z,5.43
2018-07-02T06:36:58.454Z,2.53
2018-07-02T06:39:26.992Z,2.70
2018-07-02T06:41:55.457Z,1.83
2018-07-02T06:44:23.829Z,1.73
2018-07-02T06:46:52.340Z,3.20
2018-07-02T06:49:20.989Z,3.43
2018-07-02T06:51:49.414Z,1.30
2018-07-02T06:54:17.876Z,1.50
2018-07-02T06:56:46.313Z,1.67
2018-07-02T06:59:14.934Z,1.97
2018-07-02T07:01:43.409Z,1.70
2018-07-02T07:04:11.949Z,1.37
2018-07-02T07:06:40.413Z,1.87
2018-07-02T07:09:10.053Z,1.20
2018-07-02T07:11:38.589Z,4.80
2018-07-02T07:14:07.780Z,2.60
2018-07-02T07:16:37.709Z,1.10
2018-07-02T07:19:06.185Z,2.20
2018-07-02T07:21:34.589Z,2.17
2018-07-02T07:24:04.216Z,1.07
2018-07-02T07:26:32.672Z,1.63
2018-07-02T07:29:01.120Z,2.80
2018-07-02T07:31:29.509Z,2.43
2018-07-02T07:33:58.017Z,1.40
2018-07-02T07:36:26.473Z,1.27
2018-07-02T07:38:54.848Z,1.03
2018-07-02T07:41:23.319Z,1.43
2018-07-02T07:43:52.006Z,1.83
2018-07-02T07:46:20.422Z,2.77
2018-07-02T07:48:49.726Z,5.03
2018-07-02T07:51:18.158Z,3.57
2018-07-02T07:53:46.701Z,2.60
2018-07-02T07:56:15.216Z,1.67
2018-07-02T07:58:43.725Z,3.60
2018-07-02T08:01:12.956Z,3.33
2018-07-02T08:03:41.984Z,4.17
2018-07-02T08:06:10.381Z,1.47
2018-07-02T08:08:38.811Z,1.40
2018-07-02T08:11:07.253Z,2.97
2018-07-02T08:13:35.815Z,1.50
2018-07-02T08:16:05.035Z,3.30
2018-07-02T08:18:33.872Z,5.17
2018-07-02T08:21:02.329Z,3.03
2018-07-02T08:23:31.354Z,3.23
2018-07-02T08:26:00.114Z,1.10
2018-07-02T08:28:28.597Z,1.70
2018-07-02T08:30:57.256Z,3.70
2018-07-02T08:33:25.748Z,3.63
2018-07-02T08:35:54.989Z,1.53
2018-07-02T08:38:23.478Z,3.37
2018-07-02T08:40:52.137Z,1.10
2018-07-02T08:43:20.679Z,2.13
2018-07-02T08:45:49.222Z,1.20
2018-07-02T08:48:17.670Z,2.57
2018-07-02T08:50:46.446Z,2.30
2018-07-02T08:53:14.920Z,3.70
2018-07-02T08:55:43.744Z,0.98
2018-07-02T08:58:12.321Z,2.60
2018-07-02T09:00:40.790Z,1.47
2018-07-02T09:03:09.899Z,1.55
2018-07-02T09:05:38.459Z,0.80
2018-07-02T09:08:06.869Z,2.42
2018-07-02T09:10:35.384Z,1.77
2018-07-02T09:13:04.073Z,1.45
2018-07-02T09:15:32.366Z,2.08
2018-07-02T09:18:01.562Z,2.85
2018-07-02T09:20:31.210Z,1.85
2018-07-02T09:22:59.677Z,0.93
2018-07-02T09:25:28.122Z,1.45
2018-07-02T09:27:56.521Z,3.20
2018-07-02T09:30:24.935Z,3.80
2018-07-02T09:32:53.492Z,2.15
2018-07-02T09:35:21.919Z,1.27
2018-07-02T09:37:50.406Z,2.67
2018-07-02T09:40:18.857Z,1.82
2018-07-02T09:42:47.401Z,2.27
2018-07-02T09:45:15.921Z,3.67
2018-07-02T09:47:44.342Z,3.15
2018-07-02T09:50:12.877Z,3.58
2018-07-02T09:52:41.385Z,3.05
2018-07-02T09:55:09.909Z,2.20
2018-07-02T09:57:38.365Z,2.83
2018-07-02T10:00:07.021Z,2.20
2018-07-02T10:02:35.576Z,1.65
2018-07-02T10:05:04.059Z,1.50
2018-07-02T10:07:32.597Z,4.60
2018-07-02T10:10:01.033Z,1.75
2018-07-02T10:12:29.591Z,4.33
2018-07-02T10:14:58.716Z,2.20
2018-07-02T10:17:27.881Z,2.70
2018-07-02T10:19:56.858Z,1.82
2018-07-02T10:22:25.293Z,1.45
2018-07-02T10:24:53.781Z,1.77
2018-07-02T10:27:22.221Z,1.80
2018-07-02T10:29:50.797Z,1.92
2018-07-02T10:32:19.377Z,0.93
2018-07-02T10:34:48.302Z,3.47
2018-07-02T10:37:17.389Z,4.08
2018-07-02T10:39:45.889Z,2.02
2018-07-02T10:42:14.378Z,2.42
2018-07-02T10:44:42.990Z,3.20
2018-07-02T10:47:11.535Z,1.72
2018-07-02T10:49:40.013Z,3.40
2018-07-02T10:52:08.556Z,1.90
2018-07-02T10:54:37.006Z,3.22
2018-07-02T10:57:06.046Z,1.87
2018-07-02T10:59:34.654Z,2.33
2018-07-02T11:02:04.013Z,3.10
2018-07-02T11:04:32.488Z,2.27
2018-07-02T11:07:01.730Z,3.70
2018-07-02T11:09:30.211Z,1.95
2018-07-02T11:11:58.778Z,1.60
2018-07-02T11:14:27.250Z,3.10
2018-07-02T11:16:55.773Z,3.50
2018-07-02T11:19:24.192Z,2.90
2018-07-02T11:21:52.793Z,1.25
2018-07-02T11:24:21.291Z,3.52
2018-07-02T11:26:49.693Z,2.58
2018-07-02T11:29:18.107Z,0.88
2018-07-02T11:31:46.674Z,1.98
2018-07-02T11:34:15.124Z,2.60
2018-07-02T11:36:43.600Z,3.85
2018-07-02T11:39:12.493Z,2.58
2018-07-02T11:41:41.792Z,0.68
2018-07-02T11:44:10.345Z,1.00
2018-07-02T11:46:38.719Z,2.85
2018-07-02T11:49:07.172Z,2.50
2018-07-02T11:51:36.181Z,1.42
2018-07-02T11:54:04.801Z,0.82
2018-07-02T11:56:33.259Z,1.70
2018-07-02T11:59:01.708Z,1.20
2018-07-02T12:01:30.155Z,3.58
2018-07-02T12:03:58.657Z,3.35
2018-07-02T12:06:27.181Z,3.62
2018-07-02T12:08:55.650Z,3.47
2018-07-02T12:11:24.317Z,1.72
2018-07-02T12:13:52.875Z,3.85
2018-07-02T12:16:21.469Z,1.35
2018-07-02T12:18:49.907Z,4.70
2018-07-02T12:21:18.392Z,3.72
2018-07-02T12:23:46.825Z,1.95
2018-07-02T12:26:16.161Z,3.33
2018-07-02T12:28:44.587Z,1.50
2018-07-02T12:31:13.330Z,1.75
2018-07-02T12:33:41.835Z,1.55
2018-07-02T12:36:10.358Z,2.92
2018-07-02T12:38:38.949Z,2.42
2018-07-02T12:41:07.510Z,0.72
2018-07-02T12:43:35.990Z,1.75
2018-07-02T12:46:04.538Z,2.20
2018-07-02T12:48:33.246Z,3.20
2018-07-02T12:51:01.632Z,2.27
2018-07-02T12:53:30.084Z,3.65
2018-07-02T12:55:58.544Z,2.00
2018-07-02T12:58:27.116Z,1.52
2018-07-02T13:00:55.558Z,2.15
2018-07-02T13:03:24.811Z,1.10
2018-07-02T13:05:53.307Z,1.72
2018-07-02T13:08:21.805Z,2.17
2018-07-02T13:10:50.409Z,3.80
2018-07-02T13:13:18.878Z,3.20
2018-07-02T13:15:47.392Z,1.15
2018-07-02T13:18:16.321Z,1.42
2018-07-02T13:20:45.532Z,1.27
2018-07-02T13:23:13.926Z,2.98
2018-07-02T13:25:42.471Z,2.15
2018-07-02T13:28:10.963Z,2.22
2018-07-02T13:30:39.514Z,1.02
2018-07-02T13:33:07.922Z,2.35
2018-07-02T13:35:36.422Z,3.62
2018-07-02T13:38:04.921Z,1.77
2018-07-02T13:40:33.395Z,2.85
2018-07-02T13:43:02.557Z,1.25
2018-07-02T13:45:30.986Z,2.22
2018-07-02T13:47:59.519Z,2.17
2018-07-02T13:50:28.437Z,2.15
2018-07-02T13:52:56.907Z,1.20
2018-07-02T13:55:25.472Z,0.80
2018-07-02T13:57:53.988Z,2.98
2018-07-02T14:00:22.517Z,1.40
2018-07-02T14:02:51.038Z,1.82
2018-07-02T14:05:19.505Z,3.15
2018-07-02T14:07:48.060Z,6.30
2018-07-02T14:10:17.233Z,3.08
2018-07-02T14:12:46.460Z,2.58
2018-07-02T14:15:14.950Z,2.20
2018-07-02T14:17:43.524Z,1.90
2018-07-02T14:20:12.082Z,1.17
2018-07-02T14:22:40.628Z,1.98
2018-07-02T14:25:09.054Z,0.85
2018-07-02T14:27:37.579Z,3.45
2018-07-02T14:30:06.849Z,2.25
2018-07-02T14:32:35.916Z,2.65
2018-07-02T14:35:04.475Z,3.83
2018-07-02T14:37:32.904Z,1.30
2018-07-02T14:40:01.549Z,2.25
2018-07-02T14:42:30.091Z,1.80
2018-07-02T14:44:58.649Z,2.12
2018-07-02T14:47:27.705Z,1.95
2018-07-02T14:49:56.254Z,1.90
2018-07-02T14:52:24.902Z,1.52
2018-07-02T14:54:54.288Z,1.27
2018-07-02T14:57:22.798Z,2.25
2018-07-02T14:59:51.335Z,2.52
2018-07-02T15:02:20.000Z,1.02
2018-07-02T15:04:48.496Z,3.37
2018-07-02T15:07:16.958Z,3.33
2018-07-02T15:09:45.599Z,1.55
2018-07-02T15:12:14.202Z,4.33
2018-07-02T15:14:42.653Z,1.12
2018-07-02T15:17:11.200Z,0.80
2018-07-02T15:19:39.612Z,2.40
2018-07-02T15:22:08.169Z,1.77
2018-07-02T15:24:36.681Z,3.05
2018-07-02T15:27:05.358Z,2.25
2018-07-02T15:29:33.812Z,6.78
2018-07-02T15:32:02.336Z,2.45
2018-07-02T15:34:30.788Z,1.37
2018-07-02T15:36:59.244Z,1.85
2018-07-02T15:39:27.758Z,2.67
2018-07-02T15:41:56.293Z,2.83
2018-07-02T15:44:24.823Z,1.82
2018-07-02T15:46:53.330Z,2.12
2018-07-02T15:49:22.100Z,2.00
2018-07-02T15:51:51.278Z,2.30
2018-07-02T15:54:19.837Z,2.45
2018-07-02T15:56:48.328Z,0.80
2018-07-02T15:59:16.801Z,1.40
2018-07-02T16:01:45.220Z,3.70
2018-07-02T16:04:13.705Z,2.77
2018-07-02T16:06:42.203Z,2.67
2018-07-02T16:09:11.721Z,3.80
2018-07-02T16:11:40.516Z,4.45
2018-07-02T16:14:09.059Z,2.02
2018-07-02T16:16:37.631Z,1.10
2018-07-02T16:19:06.225Z,2.37
2018-07-02T16:21:34.727Z,0.90
2018-07-02T16:24:03.249Z,3.83
2018-07-02T16:26:31.700Z,2.35
2018-07-02T16:29:00.312Z,4.20
2018-07-02T16:31:28.876Z,1.95
2018-07-02T16:33:57.416Z,1.50
2018-07-02T16:36:25.898Z,0.75
2018-07-02T16:38:54.443Z,1.80
2018-07-02T16:41:22.960Z,2.55
2018-07-02T16:43:51.485Z,3.37
2018-07-02T16:46:19.939Z,4.42
2018-07-02T16:48:48.479Z,2.50
2018-07-02T16:51:16.939Z,2.98
2018-07-02T16:53:45.405Z,2.42
2018-07-02T16:56:13.876Z,2.85
2018-07-02T16:58:42.382Z,3.85
2018-07-02T17:01:10.937Z,1.10
2018-07-02T17:03:39.423Z,3.40
2018-07-02T17:06:08.036Z,2.00
2018-07-02T17:08:36.429Z,3.02
2018-07-02T17:11:04.962Z,1.40
2018-07-02T17:13:33.518Z,0.80
2018-07-02T17:16:02.746Z,1.15
2018-07-02T17:18:31.373Z,1.50
2018-07-02T17:20:59.908Z,1.50
2018-07-02T17:23:28.402Z,3.00
2018-07-02T17:25:57.054Z,2.50
2018-07-02T17:28:26.161Z,0.72
2018-07-02T17:30:54.639Z,1.92
2018-07-02T17:33:23.072Z,4.85
2018-07-02T17:35:51.516Z,1.02
2018-07-02T17:38:20.009Z,1.20
2018-07-02T17:40:48.487Z,1.77
2018-07-02T17:43:16.933Z,3.37
2018-07-02T17:45:45.582Z,1.52
2018-07-02T17:48:14.007Z,3.17
2018-07-02T17:50:42.488Z,2.90
2018-07-02T17:53:10.965Z,2.10
2018-07-02T17:55:39.542Z,2.33
2018-07-02T17:58:08.559Z,2.20
2018-07-02T18:00:37.148Z,2.55
2018-07-02T18:03:05.638Z,4.33
2018-07-02T18:05:34.277Z,2.58
2018-07-02T18:08:03.715Z,2.77
2018-07-02T18:10:32.225Z,1.27
2018-07-02T18:13:01.454Z,2.35
2018-07-02T18:15:30.162Z,1.47
2018-07-02T18:17:58.654Z,3.77
2018-07-02T18:20:27.265Z,2.35
2018-07-02T18:22:55.837Z,0.75
2018-07-02T18:25:24.424Z,1.65
2018-07-02T18:27:53.661Z,3.12
2018-07-02T18:30:22.121Z,1.15
2018-07-02T18:32:51.345Z,1.05
2018-07-02T18:35:19.844Z,3.95
2018-07-02T18:37:48.501Z,2.12
2018-07-02T18:40:17.083Z,2.85
2018-07-02T18:42:46.009Z,5.97
2018-07-02T18:45:14.505Z,2.52
2018-07-02T18:47:43.027Z,2.42
2018-07-02T18:50:11.478Z,3.08
2018-07-02T18:52:51.662Z,1.87
2018-07-02T18:55:20.183Z,1.67
2018-07-02T18:57:49.217Z,2.08
2018-07-02T19:00:17.643Z,1.15
2018-07-02T19:02:46.364Z,1.17
2018-07-02T19:05:14.969Z,5.17
2018-07-02T19:07:43.426Z,2.05
2018-07-02T19:10:11.982Z,2.87
2018-07-02T19:12:41.148Z,3.83
2018-07-02T19:15:09.750Z,3.08
2018-07-02T19:17:38.201Z,2.52
2018-07-02T19:20:07.259Z,1.12
2018-07-02T19:22:35.737Z,3.30
2018-07-02T19:25:05.117Z,17.57
2018-07-02T19:27:33.597Z,11.93
2018-07-02T19:30:02.170Z,7.60
2018-07-02T19:32:30.755Z,13.13
2018-07-02T19:34:59.809Z,15.93
2018-07-02T19:37:28.275Z,13.73
2018-07-02T19:39:56.917Z,11.87
2018-07-02T19:42:25.517Z,8.53
2018-07-02T19:44:54.015Z,8.40
2018-07-02T19:47:23.140Z,17.23
2018-07-02T19:49:51.709Z,13.67
2018-07-02T19:52:20.218Z,9.70
2018-07-02T19:54:48.660Z,10.33
2018-07-02T19:57:17.144Z,13.07
2018-07-02T19:59:45.669Z,9.67
2018-07-02T20:02:14.214Z,11.77
2018-07-02T20:04:42.724Z,12.13
2018-07-02T20:07:11.218Z,10.27
2018-07-02T20:09:39.639Z,12.40
2018-07-02T20:12:08.242Z,9.37
2018-07-02T20:14:36.786Z,10.50
2018-07-02T20:17:05.775Z,6.70
2018-07-02T20:19:34.374Z,4.70
2018-07-02T20:22:02.972Z,6.70
2018-07-02T20:24:32.074Z,13.10
2018-07-02T20:27:01.405Z,5.37
2018-07-02T20:29:29.837Z,6.17
2018-07-02T20:31:59.186Z,6.87
2018-07-02T20:34:27.649Z,7.27
2018-07-02T20:36:56.098Z,9.13
2018-07-02T20:39:24.601Z,9.47
2018-07-02T20:41:53.162Z,3.23
2018-07-02T20:44:21.657Z,12.90
2018-07-02T20:46:50.158Z,11.87
2018-07-02T20:49:19.365Z,12.10
2018-07-02T20:51:47.834Z,3.23
2018-07-02T20:54:16.290Z,2.67
2018-07-02T20:56:44.781Z,3.13
2018-07-02T21:08:22.979Z,3.27
2018-07-02T21:10:52.182Z,1.33
2018-07-02T21:13:22.153Z,4.77
2018-07-02T21:15:50.745Z,2.50
2018-07-02T21:18:19.248Z,1.73
2018-07-02T21:20:50.130Z,2.53
2018-07-02T21:23:19.474Z,1.83
2018-07-02T21:25:48.006Z,2.13
2018-07-02T21:28:16.461Z,2.43
2018-07-02T21:30:45.001Z,1.90
2018-07-02T21:33:13.627Z,1.37
2018-07-02T21:35:43.258Z,0.70
2018-07-02T21:38:11.718Z,1.20
2018-07-02T21:40:40.278Z,2.20
2018-07-02T21:43:08.860Z,3.33
2018-07-02T21:45:39.031Z,1.57
2018-07-02T21:48:07.863Z,1.50
2018-07-02T21:50:36.493Z,0.60
2018-07-02T21:53:05.057Z,1.63
2018-07-02T21:55:33.625Z,4.07
2018-07-02T21:58:04.511Z,7.57
2018-07-02T22:00:36.820Z,2.30
2018-07-02T22:03:07.880Z,6.43
2018-07-02T22:05:36.331Z,1.60
2018-07-02T22:08:05.335Z,2.43
2018-07-02T22:10:34.779Z,2.13
2018-07-02T22:13:03.925Z,2.00
2018-07-02T22:15:32.494Z,3.13
2018-07-02T22:18:01.689Z,5.33
2018-07-02T22:20:30.306Z,1.73
2018-07-02T22:22:59.646Z,1.00
2018-07-02T22:25:28.135Z,2.17
2018-07-02T22:27:56.709Z,1.27
2018-07-02T22:30:25.199Z,3.23
2018-07-02T22:32:53.694Z,3.90
2018-07-02T22:35:22.243Z,4.87
2018-07-02T22:37:50.795Z,2.47
2018-07-02T22:40:19.260Z,1.33
2018-07-02T22:42:47.868Z,1.93
2018-07-02T22:45:16.581Z,2.47
2018-07-02T22:47:45.075Z,1.90
2018-07-02T22:50:20.010Z,3.47
2018-07-02T22:52:49.246Z,2.40
2018-07-02T22:55:17.915Z,2.80
2018-07-02T22:57:46.368Z,1.57
2018-07-02T23:00:15.578Z,4.23
2018-07-02T23:02:44.181Z,2.73
2018-07-02T23:05:13.497Z,2.60
2018-07-02T23:07:42.761Z,2.17
2018-07-02T23:10:12.235Z,3.97
2018-07-02T23:12:40.781Z,2.83
2018-07-02T23:15:09.392Z,3.53
2018-07-02T23:17:37.928Z,2.00
2018-07-02T23:20:06.386Z,2.23
2018-07-02T23:22:55.805Z,1.70
2018-07-02T23:25:24.724Z,3.30
2018-07-02T23:27:53.346Z,3.60
2018-07-02T23:30:22.338Z,3.03
2018-07-02T23:32:50.811Z,2.90
2018-07-02T23:35:19.573Z,3.83
2018-07-02T23:37:49.708Z,3.17
2018-07-02T23:40:18.616Z,3.40
2018-07-02T23:42:47.650Z,1.30
2018-07-02T23:45:16.150Z,2.57
2018-07-02T23:47:44.646Z,0.60
2018-07-02T23:50:13.135Z,1.23
2018-07-02T23:52:41.913Z,2.30
2018-07-02T23:55:10.642Z,1.63
2018-07-02T23:57:39.254Z,2.63
